Hovedside
METAR-TAF:

METAR-TAF

Lufthavner :

Tromsø, Norge

Tromsø lufthavn

breddegrad: 69-41N, lengdegrad: 018-55E, høyde over havet: 1 m

Gjeldene værobservasjon

Denne rapporten ble laget for 1 time og 16 minutter siden, klokken 09:50 UTC
Vind 7 kt fra Nord
Temperatur 2°C
Luftfuktighet 69%
Trykk 1013 hPa
Sikt 10 km eller mer
Få skyer i en høyde av 2700 ft

METAR: ENTC 270950Z 01007KT 9999 FEW027 02/M03 Q1013 NOSIG RMK WIND 2600FT 04007KT

Tid: 13:06 (11:06 UTC)

Varsel

Varsel gyldig fra 27. klokken 06 UTC til 28. klokken 06 UTC
Vind 8 kt fra Nordøst
Sikt 10 km eller mer
Få skyer i en høyde av 3500 ft

TAF: ENTC 2706/2806 04008KT 9999 FEW035

Værobservasjoner og værvarsel for over 4000 flyplasser (METAR- og TAF-rapporter).

Tilgjengelige stasjoner er representert av de røde og gule prikkene på kartet.

Hold musepekeren over prikken for å se navnet på stasjonen.

Klikk så for å se værobservasjoner og -varsler.

For å forandre kartet kan du klikke på den grønne knappen med svart kryss for å zoome inn, på den grønne knappen med strek for å zoome ut, eller på de grønne pilene for å se tilstøtende kart.


METAR-TAF: